Rosa Maria Juarez — EA4469 — position and weather

sailwx.info

Track history (hours):
 
Tides and Currents Weather Stations Pressure Air Temp Water Temp Dewpoint Dewpoint Depression Visibility Wind Speed Wind Dir Waves Ship Positions

Rosa Maria Juarez

Last reported at 2017-Nov-30 15:55 UTC. Time now 2017-Dec-11 11:34 UTC.
Position N 37°49' W 000°45'.
Warning: this ship's position is 10 days out of date.

Length 18 m.

Type: Fishing. MMSI: 224022730.

Date/timePositionNaut miles runAvg speedWind from/ knotsBaromVisibWave heightAir tempDewpointWater temp
2017-Nov-30 15:55N 37°49' W 000°45'0 0.0
2017-Nov-30 10:29N 37°49' W 000°45'0 0.4
2017-Nov-30 10:00N 37°49' W 000°45'4 8.8
2017-Nov-30 09:30N 37°53' W 000°43'5 9.4
2017-Nov-30 09:00N 37°58' W 000°41'1 0.0
2017-Nov-29 04:24N 37°58' W 000°41'3 7.1
2017-Nov-29 03:56N 37°59' W 000°37'5 8.8
2017-Nov-29 03:23N 37°60' W 000°31'3 7.1
2017-Nov-29 03:00N 37°58' W 000°33'3 4.6
2017-Nov-29 02:21N 37°56' W 000°36'3 9.0
2017-Nov-29 02:00N 37°57' W 000°40'2 0.0
2017-Nov-27 07:07N 37°58' W 000°41'1 5.5
2017-Nov-27 06:54N 37°57' W 000°41'4 9.4
2017-Nov-27 06:29N 37°55' W 000°37'6 8.3
2017-Nov-27 05:42N 37°49' W 000°34'2 5.8
2017-Nov-27 05:21N 37°47' W 000°34'1 1.1
2017-Nov-27 04:21N 37°47' W 000°33'2 4.1
2017-Nov-27 03:45N 37°49' W 000°33'2 7.4
2017-Nov-27 03:27N 37°51' W 000°35'3 7.2
2017-Nov-27 02:59N 37°54' W 000°37'4 8.5
2017-Nov-27 02:29N 37°57' W 000°41'  
2017-Nov-24 08:14N 37°55' W 000°40'2 9.5
2017-Nov-24 07:58N 37°53' W 000°39'610.2
2017-Nov-24 07:25N 37°47' W 000°38'410.4
2017-Nov-24 07:00N 37°43' W 000°37'2 3.0
2017-Nov-24 06:28N 37°42' W 000°37'0 0.8
2017-Nov-24 06:00N 37°41' W 000°37'2 3.0
2017-Nov-24 05:30N 37°42' W 000°36'0 0.9
2017-Nov-24 05:00N 37°43' W 000°36'2 3.4
2017-Nov-24 04:30N 37°44' W 000°37'1 1.2
2017-Nov-24 04:00N 37°45' W 000°36'1 2.8
2017-Nov-24 03:30N 37°44' W 000°35'5 7.5
2017-Nov-24 02:53N 37°49' W 000°36'3 8.2
2017-Nov-24 02:30N 37°52' W 000°38'4 8.6
2017-Nov-24 01:59N 37°56' W 000°40'3 0.1
2017-Nov-23 07:25N 37°58' W 000°41'0 0.7
2017-Nov-23 07:00N 37°58' W 000°41'4 8.1
2017-Nov-23 06:29N 37°57' W 000°36'2 3.6
2017-Nov-23 05:58N 37°55' W 000°35'2 3.8
2017-Nov-23 05:30N 37°57' W 000°35'3 6.6
2017-Nov-23 05:00N 38°00' W 000°34'0 0.2
2017-Nov-23 04:29N 38°00' W 000°34'3 2.6
2017-Nov-23 03:30N 38°00' W 000°31'0 0.9
2017-Nov-23 02:57N 37°60' W 000°31'3 1.7
2017-Nov-23 00:55N 38°02' W 000°34'2 2.2
2017-Nov-23 00:14N 38°02' W 000°32'3 9.6
2017-Nov-22 23:53N 37°59' W 000°35'2 5.2
2017-Nov-22 23:30N 37°58' W 000°37'  
Track history (hours):
 
Tides and Currents Weather Stations Pressure Air Temp Water Temp Dewpoint Dewpoint Depression Visibility Wind Speed Wind Dir Waves Ship Positions

Rosa Maria Juarez

Last reported at 2017-Nov-30 15:55 UTC. Time now 2017-Dec-11 11:34 UTC.
Position N 37°49' W 000°45'.
Warning: this ship's position is 10 days out of date.

Length 18 m.

Type: Fishing. MMSI: 224022730.

Date/timePositionNaut miles runAvg speedWind from/ knotsBaromVisibWave heightAir tempDewpointWater temp
2017-Nov-30 15:55N 37°49' W 000°45'0 0.0
2017-Nov-30 10:29N 37°49' W 000°45'0 0.4
2017-Nov-30 10:00N 37°49' W 000°45'4 8.8
2017-Nov-30 09:30N 37°53' W 000°43'5 9.4
2017-Nov-30 09:00N 37°58' W 000°41'1 0.0
2017-Nov-29 04:24N 37°58' W 000°41'3 7.1
2017-Nov-29 03:56N 37°59' W 000°37'5 8.8
2017-Nov-29 03:23N 37°60' W 000°31'3 7.1
2017-Nov-29 03:00N 37°58' W 000°33'3 4.6
2017-Nov-29 02:21N 37°56' W 000°36'3 9.0
2017-Nov-29 02:00N 37°57' W 000°40'2 0.0
2017-Nov-27 07:07N 37°58' W 000°41'1 5.5
2017-Nov-27 06:54N 37°57' W 000°41'4 9.4
2017-Nov-27 06:29N 37°55' W 000°37'6 8.3
2017-Nov-27 05:42N 37°49' W 000°34'2 5.8
2017-Nov-27 05:21N 37°47' W 000°34'1 1.1
2017-Nov-27 04:21N 37°47' W 000°33'2 4.1
2017-Nov-27 03:45N 37°49' W 000°33'2 7.4
2017-Nov-27 03:27N 37°51' W 000°35'3 7.2
2017-Nov-27 02:59N 37°54' W 000°37'4 8.5
2017-Nov-27 02:29N 37°57' W 000°41'  
2017-Nov-24 08:14N 37°55' W 000°40'2 9.5
2017-Nov-24 07:58N 37°53' W 000°39'610.2
2017-Nov-24 07:25N 37°47' W 000°38'410.4
2017-Nov-24 07:00N 37°43' W 000°37'2 3.0
2017-Nov-24 06:28N 37°42' W 000°37'0 0.8
2017-Nov-24 06:00N 37°41' W 000°37'2 3.0
2017-Nov-24 05:30N 37°42' W 000°36'0 0.9
2017-Nov-24 05:00N 37°43' W 000°36'2 3.4
2017-Nov-24 04:30N 37°44' W 000°37'1 1.2
2017-Nov-24 04:00N 37°45' W 000°36'1 2.8
2017-Nov-24 03:30N 37°44' W 000°35'5 7.5
2017-Nov-24 02:53N 37°49' W 000°36'3 8.2
2017-Nov-24 02:30N 37°52' W 000°38'4 8.6
2017-Nov-24 01:59N 37°56' W 000°40'3 0.1
2017-Nov-23 07:25N 37°58' W 000°41'0 0.7
2017-Nov-23 07:00N 37°58' W 000°41'4 8.1
2017-Nov-23 06:29N 37°57' W 000°36'2 3.6
2017-Nov-23 05:58N 37°55' W 000°35'2 3.8
2017-Nov-23 05:30N 37°57' W 000°35'3 6.6
2017-Nov-23 05:00N 38°00' W 000°34'0 0.2
2017-Nov-23 04:29N 38°00' W 000°34'3 2.6
2017-Nov-23 03:30N 38°00' W 000°31'0 0.9
2017-Nov-23 02:57N 37°60' W 000°31'3 1.7
2017-Nov-23 00:55N 38°02' W 000°34'2 2.2
2017-Nov-23 00:14N 38°02' W 000°32'3 9.6
2017-Nov-22 23:53N 37°59' W 000°35'2 5.2
2017-Nov-22 23:30N 37°58' W 000°37'  

Dump ship's entire track history